Central Bridge, New York
Current Conditions -  °F | °C
As of 3:15 PM on Wednesday 28 Jan 2015 (Local Time) from KNY0 Reporting Station
Clear Clear  
Wind Chill:   Ceiling: Unl
Heat Index: 18°   Visibility: 10mi
Dew Point: -2°   Wind: 16mph
Humidity: 41%   Direction: 250°WSW
Pressure: 30.1"   Gusts: 22mph
Location:  42.71°N, 74.34°W
Report Text: KNY0 282015Z AUTO 25014G19KT 10SM CLR M08/M19 A3010 RMK AO2 T10771189
Loading
Personal Weather Stations






























Interactive Weather Map New forecast layout! Learn more

10-Day Weather Forecast

Advertisements
Track Severe Weather on mobile